createdAt,value
2017-07-20T00:02:16.063Z,6.50
2017-07-20T00:04:42.754Z,6.73
2017-07-20T00:07:09.458Z,6.60
2017-07-20T00:09:36.145Z,6.57
2017-07-20T00:12:02.827Z,6.57
2017-07-20T00:14:29.541Z,7.47
2017-07-20T00:16:56.226Z,6.70
2017-07-20T00:19:22.914Z,6.80
2017-07-20T00:21:49.629Z,6.30
2017-07-20T00:24:16.316Z,6.57
2017-07-20T00:26:43.009Z,6.50
2017-07-20T00:29:09.724Z,7.13
2017-07-20T00:31:36.415Z,7.10
2017-07-20T00:34:03.101Z,7.03
2017-07-20T00:36:29.806Z,6.87
2017-07-20T00:38:56.498Z,6.63
2017-07-20T00:41:23.196Z,6.70
2017-07-20T00:43:49.891Z,7.03
2017-07-20T00:46:16.581Z,5.90
2017-07-20T00:48:43.276Z,6.77
2017-07-20T00:51:10.001Z,6.47
2017-07-20T00:53:36.698Z,6.83
2017-07-20T00:56:03.377Z,7.20
2017-07-20T00:58:30.106Z,7.20
2017-07-20T01:00:56.796Z,6.80
2017-07-20T01:03:23.483Z,6.53
2017-07-20T01:05:50.193Z,7.47
2017-07-20T01:08:16.889Z,6.60
2017-07-20T01:10:43.599Z,7.60
2017-07-20T01:13:10.317Z,7.10
2017-07-20T01:15:37.024Z,6.93
2017-07-20T01:18:03.714Z,6.40
2017-07-20T01:20:30.423Z,7.23
2017-07-20T01:22:57.131Z,6.50
2017-07-20T01:25:23.816Z,7.17
2017-07-20T01:27:50.550Z,6.37
2017-07-20T01:30:17.261Z,7.30
2017-07-20T01:32:43.946Z,6.83
2017-07-20T01:35:10.655Z,6.83
2017-07-20T01:37:37.348Z,7.17
2017-07-20T01:40:04.035Z,7.53
2017-07-20T01:42:30.759Z,6.97
2017-07-20T01:44:57.454Z,7.37
2017-07-20T01:47:24.164Z,6.80
2017-07-20T01:49:50.873Z,6.67
2017-07-20T01:52:17.587Z,6.90
2017-07-20T01:54:44.272Z,7.10
2017-07-20T01:57:11.722Z,6.20
2017-07-20T01:59:38.414Z,7.20
2017-07-20T02:02:05.105Z,6.87
2017-07-20T02:04:31.953Z,6.57
2017-07-20T02:06:58.650Z,7.10
2017-07-20T02:09:25.351Z,7.20
2017-07-20T02:11:52.064Z,6.73
2017-07-20T02:14:18.747Z,6.73
2017-07-20T02:16:45.436Z,7.17
2017-07-20T02:19:12.152Z,7.43
2017-07-20T02:21:38.841Z,6.70
2017-07-20T02:24:05.520Z,7.13
2017-07-20T02:26:32.284Z,6.90
2017-07-20T02:28:58.972Z,6.90
2017-07-20T02:31:25.671Z,7.43
2017-07-20T02:33:52.376Z,7.07
2017-07-20T02:36:19.065Z,6.40
2017-07-20T02:38:45.755Z,7.00
2017-07-20T02:41:12.484Z,7.23
2017-07-20T02:43:39.191Z,7.07
2017-07-20T02:46:05.891Z,6.77
2017-07-20T02:48:32.601Z,7.30
2017-07-20T02:50:59.286Z,7.67
2017-07-20T02:53:25.981Z,7.83
2017-07-20T02:55:52.686Z,7.70
2017-07-20T02:58:19.377Z,6.83
2017-07-20T03:00:46.063Z,7.27
2017-07-20T03:03:12.776Z,7.03
2017-07-20T03:05:39.467Z,7.03
2017-07-20T03:08:06.159Z,7.80
2017-07-20T03:10:32.863Z,6.43
2017-07-20T03:12:59.561Z,7.63
2017-07-20T03:15:26.242Z,7.57
2017-07-20T03:17:52.960Z,7.70
2017-07-20T03:20:19.669Z,7.00
2017-07-20T03:22:46.386Z,6.80
2017-07-20T03:25:13.090Z,7.30
2017-07-20T03:27:39.784Z,7.20
2017-07-20T03:30:06.468Z,6.20
2017-07-20T03:32:33.205Z,7.80
2017-07-20T03:34:59.895Z,7.30
2017-07-20T03:37:26.590Z,7.30
2017-07-20T03:39:53.299Z,6.97
2017-07-20T03:42:19.982Z,7.93
2017-07-20T03:44:46.671Z,7.57
2017-07-20T03:47:13.384Z,7.00
2017-07-20T03:49:40.080Z,7.03
2017-07-20T03:52:06.778Z,7.53
2017-07-20T03:54:33.481Z,7.93
2017-07-20T03:57:00.169Z,7.37
2017-07-20T03:59:26.860Z,7.57
2017-07-20T04:01:53.577Z,7.33
2017-07-20T04:04:20.274Z,7.47
2017-07-20T04:06:46.965Z,8.00
2017-07-20T04:09:13.692Z,7.90
2017-07-20T04:11:40.398Z,7.93
2017-07-20T04:14:07.085Z,7.80
2017-07-20T04:16:33.790Z,8.63
2017-07-20T04:19:00.481Z,8.37
2017-07-20T04:34:27.231Z,8.70
2017-07-20T04:36:53.943Z,9.77
2017-07-20T04:39:20.663Z,9.90
2017-07-20T04:41:47.379Z,10.10
2017-07-20T04:44:14.074Z,10.20
2017-07-20T04:46:40.768Z,9.33
2017-07-20T04:49:07.494Z,9.00
2017-07-20T04:51:34.187Z,8.57
2017-07-20T04:54:00.879Z,9.17
2017-07-20T04:56:27.585Z,9.40
2017-07-20T04:58:54.286Z,9.83
2017-07-20T05:01:20.990Z,10.20
2017-07-20T05:03:47.721Z,9.17
2017-07-20T05:06:14.403Z,8.67
2017-07-20T05:08:41.092Z,8.83
2017-07-20T05:11:07.839Z,9.80
2017-07-20T05:13:34.534Z,9.97
2017-07-20T05:16:01.230Z,8.83
2017-07-20T05:18:27.935Z,9.07
2017-07-20T05:20:54.640Z,8.40
2017-07-20T05:23:21.326Z,8.43
2017-07-20T05:25:48.047Z,9.80
2017-07-20T05:28:14.760Z,9.23
2017-07-20T05:30:41.462Z,8.70
2017-07-20T05:33:08.209Z,8.50
2017-07-20T05:35:34.908Z,8.50
2017-07-20T05:38:01.616Z,9.07
2017-07-20T05:40:28.338Z,8.90
2017-07-20T05:42:55.018Z,8.47
2017-07-20T05:45:21.748Z,9.00
2017-07-20T05:47:48.471Z,10.17
2017-07-20T05:50:15.169Z,9.73
2017-07-20T05:52:41.857Z,8.50
2017-07-20T05:55:08.577Z,10.13
2017-07-20T05:57:35.268Z,9.83
2017-07-20T06:00:01.965Z,9.30
2017-07-20T06:02:28.694Z,8.73
2017-07-20T06:04:55.373Z,8.80
2017-07-20T06:07:22.058Z,7.97
2017-07-20T06:09:48.781Z,7.60
2017-07-20T06:12:15.492Z,7.57
2017-07-20T06:14:42.179Z,8.10
2017-07-20T06:17:08.879Z,8.00
2017-07-20T06:19:35.572Z,6.80
2017-07-20T06:22:02.274Z,8.00
2017-07-20T06:24:28.997Z,7.07
2017-07-20T06:26:55.695Z,7.50
2017-07-20T06:29:22.405Z,7.83
2017-07-20T06:31:49.105Z,7.33
2017-07-20T06:34:15.797Z,7.30
2017-07-20T06:36:42.495Z,7.80
2017-07-20T06:39:09.231Z,8.60
2017-07-20T06:41:35.928Z,7.97
2017-07-20T06:44:02.627Z,7.43
2017-07-20T06:46:29.357Z,8.33
2017-07-20T06:48:56.052Z,7.40
2017-07-20T06:51:22.759Z,6.90
2017-07-20T06:53:49.459Z,7.10
2017-07-20T06:56:16.158Z,7.63
2017-07-20T06:58:42.838Z,7.03
2017-07-20T07:01:09.557Z,7.30
2017-07-20T07:03:36.261Z,6.87
2017-07-20T07:06:02.947Z,5.53
2017-07-20T07:08:29.652Z,6.13
2017-07-20T07:10:56.343Z,5.90
2017-07-20T07:13:23.034Z,6.10
2017-07-20T07:15:49.775Z,5.70
2017-07-20T07:18:16.470Z,6.10
2017-07-20T07:20:43.172Z,6.50
2017-07-20T07:23:09.881Z,7.00
2017-07-20T07:25:36.561Z,5.90
2017-07-20T07:28:03.264Z,6.50
2017-07-20T07:30:29.970Z,6.10
2017-07-20T07:32:56.662Z,5.20
2017-07-20T07:35:23.354Z,6.10
2017-07-20T07:37:50.070Z,6.13
2017-07-20T07:40:16.757Z,5.70
2017-07-20T07:42:43.450Z,4.80
2017-07-20T07:45:10.165Z,6.20
2017-07-20T07:47:36.850Z,5.47
2017-07-20T07:50:03.545Z,4.93
2017-07-20T07:52:30.249Z,5.27
2017-07-20T07:54:56.947Z,4.97
2017-07-20T07:57:23.649Z,5.20
2017-07-20T07:59:50.354Z,5.00
2017-07-20T08:02:17.055Z,4.47
2017-07-20T08:04:43.743Z,4.60
2017-07-20T08:07:10.769Z,5.23
2017-07-20T08:09:38.009Z,4.57
2017-07-20T08:12:04.706Z,4.90
2017-07-20T08:14:32.033Z,4.03
2017-07-20T08:16:58.732Z,4.70
2017-07-20T08:19:25.431Z,4.37
2017-07-20T08:21:52.136Z,4.60
2017-07-20T08:24:18.822Z,4.67
2017-07-20T08:26:45.539Z,4.10
2017-07-20T08:29:12.241Z,4.50
2017-07-20T08:31:38.935Z,4.60
2017-07-20T08:34:05.629Z,5.03
2017-07-20T08:36:32.349Z,5.40
2017-07-20T08:38:59.042Z,4.70
2017-07-20T08:41:25.743Z,4.37
2017-07-20T08:43:52.480Z,4.50
2017-07-20T08:46:19.557Z,4.20
2017-07-20T08:48:46.249Z,3.83
2017-07-20T08:51:12.965Z,4.10
2017-07-20T08:53:39.649Z,4.37
2017-07-20T08:56:06.338Z,3.90
2017-07-20T08:58:33.034Z,3.63
2017-07-20T09:00:59.726Z,3.83
2017-07-20T09:03:26.423Z,4.03
2017-07-20T09:05:53.109Z,4.00
2017-07-20T09:08:19.813Z,3.47
2017-07-20T09:10:46.512Z,4.73
2017-07-20T09:13:13.250Z,4.07
2017-07-20T09:15:39.938Z,3.33
2017-07-20T09:18:06.621Z,3.07
2017-07-20T09:20:33.307Z,4.30
2017-07-20T09:22:59.997Z,3.20
2017-07-20T09:25:26.769Z,3.10
2017-07-20T09:27:53.486Z,3.20
2017-07-20T09:30:20.178Z,2.87
2017-07-20T09:32:46.886Z,2.83
2017-07-20T09:35:13.599Z,3.13
2017-07-20T09:37:40.287Z,3.17
2017-07-20T09:40:06.981Z,3.43
2017-07-20T09:42:33.686Z,3.37
2017-07-20T09:45:06.191Z,3.30
2017-07-20T09:47:32.918Z,2.97
2017-07-20T09:49:59.606Z,3.10
2017-07-20T09:52:26.297Z,3.23
2017-07-20T09:54:52.992Z,3.60
2017-07-20T09:57:19.682Z,3.17
2017-07-20T09:59:46.364Z,2.80
2017-07-20T10:02:13.060Z,3.10
2017-07-20T10:04:39.744Z,3.00
2017-07-20T10:07:06.440Z,3.20
2017-07-20T10:09:33.162Z,3.03
2017-07-20T10:11:59.866Z,3.50
2017-07-20T10:14:26.578Z,3.10
2017-07-20T10:16:53.299Z,3.27
2017-07-20T10:19:20.005Z,3.17
2017-07-20T10:21:46.693Z,3.30
2017-07-20T10:24:13.381Z,2.90
2017-07-20T10:26:40.061Z,3.40
2017-07-20T10:29:06.749Z,3.37
2017-07-20T10:31:33.450Z,3.30
2017-07-20T10:34:00.147Z,3.60
2017-07-20T10:36:26.842Z,3.63
2017-07-20T10:38:53.582Z,3.70
2017-07-20T10:41:20.278Z,3.30
2017-07-20T10:43:46.969Z,3.60
2017-07-20T10:46:13.689Z,2.97
2017-07-20T10:48:40.374Z,3.60
2017-07-20T10:51:07.056Z,4.00
2017-07-20T10:53:33.765Z,3.10
2017-07-20T10:56:00.476Z,2.80
2017-07-20T10:58:27.185Z,3.43
2017-07-20T11:00:53.895Z,3.30
2017-07-20T11:03:20.602Z,3.60
2017-07-20T11:05:47.286Z,3.17
2017-07-20T11:08:14.016Z,2.90
2017-07-20T11:10:40.707Z,3.03
2017-07-20T11:13:07.405Z,3.27
2017-07-20T11:15:34.129Z,3.10
2017-07-20T11:18:00.825Z,2.90
2017-07-20T11:20:27.545Z,3.20
2017-07-20T11:22:54.277Z,2.90
2017-07-20T11:25:20.970Z,3.63
2017-07-20T11:27:47.675Z,3.30
2017-07-20T11:30:14.387Z,3.33
2017-07-20T11:32:41.083Z,2.80
2017-07-20T11:35:07.773Z,4.40
2017-07-20T11:37:34.474Z,3.80
2017-07-20T11:40:01.166Z,4.20
2017-07-20T11:42:27.880Z,4.60
2017-07-20T11:44:54.582Z,4.00
2017-07-20T11:47:21.289Z,4.03
2017-07-20T11:49:47.978Z,4.03
2017-07-20T11:52:14.677Z,4.00
2017-07-20T11:54:41.362Z,4.47
2017-07-20T11:57:08.053Z,4.03
2017-07-20T11:59:34.737Z,3.87
2017-07-20T12:02:01.431Z,3.43
2017-07-20T12:04:28.130Z,3.47
2017-07-20T12:06:54.839Z,4.20
2017-07-20T12:09:21.559Z,3.83
2017-07-20T12:11:48.253Z,3.40
2017-07-20T12:14:14.962Z,4.27
2017-07-20T12:16:41.657Z,3.77
2017-07-20T12:19:08.353Z,4.10
2017-07-20T12:21:35.072Z,3.80
2017-07-20T12:24:01.767Z,4.20
2017-07-20T12:26:28.458Z,4.43
2017-07-20T12:28:55.202Z,3.60
2017-07-20T12:31:21.889Z,3.90
2017-07-20T12:33:48.573Z,4.33
2017-07-20T12:36:15.294Z,4.33
2017-07-20T12:38:41.981Z,4.00
2017-07-20T12:41:08.685Z,3.90
2017-07-20T12:43:35.405Z,3.60
2017-07-20T12:46:02.096Z,3.87
2017-07-20T12:48:28.790Z,3.50
2017-07-20T12:50:55.500Z,3.30
2017-07-20T12:53:22.269Z,3.60
2017-07-20T12:55:48.951Z,3.60
2017-07-20T12:58:15.654Z,3.93
2017-07-20T13:00:42.549Z,4.20
2017-07-20T13:03:12.411Z,3.57
2017-07-20T13:05:39.325Z,4.03
2017-07-20T13:08:06.011Z,4.07
2017-07-20T13:10:32.707Z,3.43
2017-07-20T13:12:59.406Z,3.40
2017-07-20T13:15:26.111Z,3.47
2017-07-20T13:17:52.834Z,3.70
2017-07-20T13:20:19.557Z,3.27
2017-07-20T13:22:46.259Z,3.70
2017-07-20T13:25:12.957Z,3.53
2017-07-20T13:27:39.667Z,3.17
2017-07-20T13:30:06.462Z,3.03
2017-07-20T13:32:33.187Z,3.23
2017-07-20T13:34:59.913Z,3.07
2017-07-20T13:37:26.601Z,3.30
2017-07-20T13:39:53.289Z,3.10
2017-07-20T13:42:20.019Z,3.10
2017-07-20T13:44:46.701Z,2.70
2017-07-20T13:47:13.386Z,2.83
2017-07-20T13:49:40.087Z,2.80
2017-07-20T13:52:06.772Z,2.70
2017-07-20T13:54:33.458Z,2.70
2017-07-20T13:57:00.154Z,2.80
2017-07-20T13:59:26.851Z,3.20
2017-07-20T14:01:53.539Z,2.70
2017-07-20T14:04:20.255Z,3.20
2017-07-20T14:06:46.952Z,3.10
2017-07-20T14:09:13.654Z,2.83
2017-07-20T14:11:40.408Z,3.23
2017-07-20T14:14:07.095Z,3.03
2017-07-20T14:16:33.785Z,3.57
2017-07-20T14:19:00.760Z,2.90
2017-07-20T14:21:27.507Z,2.83
2017-07-20T14:23:54.200Z,2.67
2017-07-20T14:26:20.922Z,2.87
2017-07-20T14:28:47.612Z,3.03
2017-07-20T14:31:22.535Z,3.10
2017-07-20T14:33:58.227Z,3.00
2017-07-20T14:36:34.700Z,2.80
2017-07-20T14:39:11.762Z,2.67
2017-07-20T14:41:48.264Z,2.90
2017-07-20T14:44:26.132Z,3.20
2017-07-20T14:47:02.473Z,3.40
2017-07-20T14:49:38.884Z,2.83
2017-07-20T14:52:05.576Z,2.80
2017-07-20T14:54:32.273Z,3.00
2017-07-20T14:56:59.002Z,2.80
2017-07-20T14:59:25.703Z,3.10
2017-07-20T15:01:52.397Z,3.20
2017-07-20T15:04:19.098Z,2.90
2017-07-20T15:06:45.795Z,3.30
2017-07-20T15:09:12.484Z,2.80
2017-07-20T15:11:39.201Z,3.33
2017-07-20T15:14:05.890Z,3.10
2017-07-20T15:16:32.572Z,2.90
2017-07-20T15:18:59.291Z,3.20
2017-07-20T15:21:25.978Z,3.27
2017-07-20T15:23:52.678Z,3.40
2017-07-20T15:26:19.399Z,3.00
2017-07-20T15:28:46.122Z,3.60
2017-07-20T15:31:12.815Z,4.20
2017-07-20T15:33:39.529Z,3.27
2017-07-20T15:36:06.223Z,3.13
2017-07-20T15:38:32.922Z,3.40
2017-07-20T15:40:59.646Z,3.30
2017-07-20T15:43:26.330Z,3.43
2017-07-20T15:45:53.035Z,2.97
2017-07-20T15:48:19.742Z,3.70
2017-07-20T15:50:46.434Z,3.57
2017-07-20T15:53:13.126Z,3.30
2017-07-20T15:55:39.827Z,3.37
2017-07-20T15:58:06.527Z,3.70
2017-07-20T16:00:33.219Z,3.40
2017-07-20T16:02:59.922Z,3.90
2017-07-20T16:05:26.615Z,3.50
2017-07-20T16:07:53.314Z,3.80
2017-07-20T16:10:20.050Z,4.10
2017-07-20T16:12:46.746Z,3.77
2017-07-20T16:15:13.942Z,3.80
2017-07-20T16:17:40.674Z,3.73
2017-07-20T16:20:08.085Z,3.50
2017-07-20T16:22:34.791Z,4.10
2017-07-20T16:25:01.517Z,4.10
2017-07-20T16:27:28.206Z,3.70
2017-07-20T16:29:54.901Z,3.80
2017-07-20T16:32:21.633Z,4.00
2017-07-20T16:34:48.336Z,3.80
2017-07-20T16:37:15.017Z,4.53
2017-07-20T16:39:41.762Z,4.03
2017-07-20T16:42:08.456Z,3.60
2017-07-20T16:44:35.165Z,3.93
2017-07-20T16:47:01.911Z,3.70
2017-07-20T16:49:28.596Z,3.33
2017-07-20T16:51:55.289Z,3.67
2017-07-20T16:54:21.997Z,3.97
2017-07-20T16:56:48.698Z,5.20
2017-07-20T16:59:15.382Z,3.83
2017-07-20T17:01:42.105Z,6.77
2017-07-20T17:04:08.805Z,5.60
2017-07-20T17:06:35.504Z,7.07
2017-07-20T17:09:02.226Z,6.07
2017-07-20T17:11:29.717Z,4.40
2017-07-20T17:13:56.406Z,4.13
2017-07-20T17:16:23.103Z,4.70
2017-07-20T17:18:49.800Z,4.40
2017-07-20T17:21:16.486Z,4.70
2017-07-20T17:23:43.198Z,4.60
2017-07-20T17:26:09.890Z,4.60
2017-07-20T17:28:36.581Z,4.03
2017-07-20T17:31:03.306Z,3.53
2017-07-20T17:33:29.989Z,4.20
2017-07-20T17:35:56.690Z,3.93
2017-07-20T17:38:23.394Z,4.20
2017-07-20T17:40:50.097Z,4.70
2017-07-20T17:43:16.824Z,4.17
2017-07-20T17:45:43.531Z,3.90
2017-07-20T17:48:10.244Z,4.30
2017-07-20T17:50:36.937Z,4.90
2017-07-20T17:53:03.642Z,4.23
2017-07-20T17:55:30.351Z,4.30
2017-07-20T17:57:57.042Z,4.27
2017-07-20T18:00:23.730Z,4.30
2017-07-20T18:02:50.418Z,4.70
2017-07-20T18:05:17.109Z,4.97
2017-07-20T18:07:43.839Z,4.53
2017-07-20T18:10:10.524Z,4.17
2017-07-20T18:12:37.218Z,4.50
2017-07-20T18:15:03.915Z,5.00
2017-07-20T18:17:30.600Z,4.30
2017-07-20T18:19:57.288Z,4.37
2017-07-20T18:22:23.980Z,5.27
2017-07-20T18:24:51.062Z,4.77
2017-07-20T18:27:17.767Z,4.97
2017-07-20T18:29:44.491Z,4.90
2017-07-20T18:32:11.198Z,4.57
2017-07-20T18:34:37.894Z,4.67
2017-07-20T18:37:04.598Z,4.47
2017-07-20T18:39:31.292Z,4.50
2017-07-20T18:41:57.993Z,4.60
2017-07-20T18:44:24.699Z,4.83
2017-07-20T18:46:51.402Z,4.97
2017-07-20T18:49:18.099Z,5.10
2017-07-20T18:51:44.806Z,5.20
2017-07-20T18:54:11.531Z,5.10
2017-07-20T18:56:38.228Z,5.80
2017-07-20T18:59:04.925Z,4.60
2017-07-20T19:01:31.625Z,5.13
2017-07-20T19:03:58.301Z,5.40
2017-07-20T19:06:25.007Z,4.57
2017-07-20T19:08:51.690Z,5.20
2017-07-20T19:11:18.378Z,5.30
2017-07-20T19:13:45.092Z,4.90
2017-07-20T19:16:11.794Z,4.97
2017-07-20T19:18:38.479Z,5.60
2017-07-20T19:21:05.201Z,5.63
2017-07-20T19:23:31.911Z,5.00
2017-07-20T19:25:58.601Z,4.40
2017-07-20T19:28:25.325Z,5.20
2017-07-20T19:30:52.025Z,4.80
2017-07-20T19:33:18.734Z,4.43
2017-07-20T19:35:45.442Z,6.50
2017-07-20T19:38:12.137Z,6.60
2017-07-20T19:40:38.834Z,6.10
2017-07-20T19:43:05.542Z,6.13
2017-07-20T19:45:32.281Z,4.73
2017-07-20T19:47:58.977Z,5.80
2017-07-20T19:50:25.713Z,4.83
2017-07-20T19:52:52.453Z,5.30
2017-07-20T19:55:19.167Z,4.80
2017-07-20T19:57:45.906Z,5.30
2017-07-20T20:00:12.605Z,4.40
2017-07-20T20:02:39.297Z,4.73
2017-07-20T20:05:06.952Z,4.30
2017-07-20T20:07:33.641Z,3.70
2017-07-20T20:10:00.338Z,3.10
2017-07-20T20:12:27.122Z,3.83
2017-07-20T20:14:53.820Z,2.67
2017-07-20T20:17:20.583Z,2.43
2017-07-20T20:19:47.323Z,3.07
2017-07-20T20:22:14.042Z,3.33
2017-07-20T20:24:40.747Z,2.20
2017-07-20T20:27:07.516Z,1.70
2017-07-20T20:29:34.246Z,1.57
2017-07-20T20:32:00.946Z,2.50
2017-07-20T20:34:27.699Z,2.23
2017-07-20T20:36:54.393Z,1.30
2017-07-20T20:39:21.110Z,1.90
2017-07-20T20:41:47.822Z,1.90
2017-07-20T20:44:14.515Z,1.40
2017-07-20T20:46:41.219Z,1.73
2017-07-20T20:49:07.928Z,2.13
2017-07-20T20:51:34.610Z,1.90
2017-07-20T20:54:01.300Z,1.67
2017-07-20T20:56:28.021Z,1.30
2017-07-20T20:58:54.731Z,1.60
2017-07-20T21:01:21.434Z,1.30
2017-07-20T21:03:48.133Z,1.10
2017-07-20T21:06:14.824Z,1.47
2017-07-20T21:08:41.518Z,1.10
2017-07-20T21:11:08.228Z,1.30
2017-07-20T21:13:34.950Z,1.10
2017-07-20T21:16:01.639Z,1.00
2017-07-20T21:18:28.361Z,1.20
2017-07-20T21:20:55.044Z,1.43
2017-07-20T21:23:21.723Z,1.60
2017-07-20T21:25:48.441Z,1.40
2017-07-20T21:28:15.138Z,1.40
2017-07-20T21:30:41.836Z,1.63
2017-07-20T21:33:08.562Z,1.90
2017-07-20T21:35:35.252Z,2.10
2017-07-20T21:38:01.929Z,1.30
2017-07-20T21:40:28.633Z,1.47
2017-07-20T21:42:55.334Z,1.00
2017-07-20T21:45:22.025Z,1.12
2017-07-20T21:47:48.738Z,1.20
2017-07-20T21:50:15.417Z,1.10
2017-07-20T21:52:42.106Z,1.20
2017-07-20T21:55:08.811Z,1.20
2017-07-20T21:57:35.509Z,1.20
2017-07-20T22:00:02.224Z,1.00
2017-07-20T22:02:28.935Z,0.93
2017-07-20T22:04:55.630Z,1.00
2017-07-20T22:07:22.328Z,1.07
2017-07-20T22:09:49.045Z,0.77
2017-07-20T22:12:15.733Z,1.13
2017-07-20T22:14:42.419Z,1.03
2017-07-20T22:17:09.131Z,1.23
2017-07-20T22:19:35.837Z,1.20
2017-07-20T22:22:02.536Z,1.40
2017-07-20T22:24:29.299Z,1.17
2017-07-20T22:26:55.979Z,1.23
2017-07-20T22:29:22.663Z,1.63
2017-07-20T22:31:49.367Z,1.20
2017-07-20T22:34:16.057Z,1.53
2017-07-20T22:36:42.740Z,1.10
2017-07-20T22:39:09.476Z,1.10
2017-07-20T22:41:36.175Z,1.20
2017-07-20T22:44:02.884Z,1.40
2017-07-20T22:46:29.597Z,1.60
2017-07-20T22:48:56.282Z,1.70
2017-07-20T22:51:22.977Z,1.20
2017-07-20T22:53:49.806Z,1.50
2017-07-20T22:56:16.505Z,1.50
2017-07-20T22:58:43.199Z,1.30
2017-07-20T23:01:09.914Z,1.00
2017-07-20T23:03:36.637Z,1.30
2017-07-20T23:06:03.320Z,1.10
2017-07-20T23:08:30.036Z,1.10
2017-07-20T23:10:56.723Z,1.17
2017-07-20T23:13:23.422Z,1.17
2017-07-20T23:15:50.143Z,1.40
2017-07-20T23:18:16.830Z,0.83
2017-07-20T23:20:43.519Z,1.10
2017-07-20T23:23:10.217Z,1.10
2017-07-20T23:25:36.901Z,1.20
2017-07-20T23:28:03.592Z,1.00
2017-07-20T23:30:30.309Z,1.50
2017-07-20T23:32:57.002Z,1.33
2017-07-20T23:35:23.696Z,1.53
2017-07-20T23:37:50.417Z,1.47
2017-07-20T23:40:17.104Z,1.17
2017-07-20T23:42:43.798Z,1.40
2017-07-20T23:45:10.532Z,1.60
2017-07-20T23:47:37.230Z,1.40
2017-07-20T23:50:03.928Z,1.20
2017-07-20T23:52:30.647Z,1.50
2017-07-20T23:54:57.349Z,1.47
2017-07-20T23:57:24.063Z,1.33
2017-07-20T23:59:50.781Z,1.20
